Terminal Aerodrome Forecast
Issued by NWS

Home | Current Version | Previous Version | Text Only | Print | Product List | Glossary Off
Versions: 1 2 3 4 5 6 7 8 9 10 11 12 13

000
FTUS43 KPAH 031731
TAFCGI
TAF
KCGI 031731Z 0318/0418 34006KT P6SM FEW035 SCT050 BKN080
      TEMPO 0318/0319 SCT035 BKN050
     FM040400 26003KT P6SM FEW060
     FM041030 28008KT P6SM VCTS BKN090 OVC150CB
     FM041500 33009G18KT P6SM FEW025 SCT060=

USA.gov is the U.S. government's official web portal to all federal, state and local government web resources and services.